sensor_id;sensor_type;location;lat;lon;timestamp;P1;durP1;ratioP1;P2;durP2;ratioP2
21474;SDS011;10899;53.576;9.960;2022-09-20T00:00:39;2.83;;;1.02;;
21474;SDS011;10899;53.576;9.960;2022-09-20T00:03:06;2.17;;;1.10;;
21474;SDS011;10899;53.576;9.960;2022-09-20T00:05:34;5.63;;;1.20;;
21474;SDS011;10899;53.576;9.960;2022-09-20T00:08:01;2.45;;;0.98;;
21474;SDS011;10899;53.576;9.960;2022-09-20T00:10:28;3.72;;;1.48;;
21474;SDS011;10899;53.576;9.960;2022-09-20T00:12:56;1.67;;;1.02;;
21474;SDS011;10899;53.576;9.960;2022-09-20T00:15:22;3.22;;;1.13;;
21474;SDS011;10899;53.576;9.960;2022-09-20T00:17:49;3.08;;;1.30;;
21474;SDS011;10899;53.576;9.960;2022-09-20T00:20:15;2.35;;;1.00;;
21474;SDS011;10899;53.576;9.960;2022-09-20T00:22:42;1.63;;;0.90;;
21474;SDS011;10899;53.576;9.960;2022-09-20T00:25:08;3.22;;;1.30;;
21474;SDS011;10899;53.576;9.960;2022-09-20T00:27:35;2.72;;;1.15;;
21474;SDS011;10899;53.576;9.960;2022-09-20T00:30:02;14.13;;;2.20;;
21474;SDS011;10899;53.576;9.960;2022-09-20T00:32:29;8.32;;;1.40;;
21474;SDS011;10899;53.576;9.960;2022-09-20T00:34:57;5.25;;;1.67;;
21474;SDS011;10899;53.576;9.960;2022-09-20T00:37:34;4.43;;;1.30;;
21474;SDS011;10899;53.576;9.960;2022-09-20T00:40:01;3.85;;;1.20;;
21474;SDS011;10899;53.576;9.960;2022-09-20T00:42:28;3.20;;;0.93;;
21474;SDS011;10899;53.576;9.960;2022-09-20T00:45:05;7.47;;;1.35;;
21474;SDS011;10899;53.576;9.960;2022-09-20T00:50:06;7.35;;;1.40;;
21474;SDS011;10899;53.576;9.960;2022-09-20T00:52:34;5.57;;;1.63;;
21474;SDS011;10899;53.576;9.960;2022-09-20T00:55:02;8.27;;;1.35;;
21474;SDS011;10899;53.576;9.960;2022-09-20T00:57:31;3.92;;;1.45;;
21474;SDS011;10899;53.576;9.960;2022-09-20T01:00:04;3.30;;;1.08;;
21474;SDS011;10899;53.576;9.960;2022-09-20T01:02:32;5.60;;;1.88;;
21474;SDS011;10899;53.576;9.960;2022-09-20T01:04:59;5.85;;;2.00;;
21474;SDS011;10899;53.576;9.960;2022-09-20T01:07:26;12.77;;;1.85;;
21474;SDS011;10899;53.576;9.960;2022-09-20T01:09:54;8.07;;;1.67;;
21474;SDS011;10899;53.576;9.960;2022-09-20T01:12:21;8.15;;;1.60;;
21474;SDS011;10899;53.576;9.960;2022-09-20T01:14:49;10.68;;;2.05;;
21474;SDS011;10899;53.576;9.960;2022-09-20T01:17:16;11.25;;;1.88;;
21474;SDS011;10899;53.576;9.960;2022-09-20T01:22:19;2.55;;;1.13;;
21474;SDS011;10899;53.576;9.960;2022-09-20T01:25:09;10.32;;;1.67;;
21474;SDS011;10899;53.576;9.960;2022-09-20T01:27:46;8.52;;;1.60;;
21474;SDS011;10899;53.576;9.960;2022-09-20T01:30:15;5.57;;;1.73;;
21474;SDS011;10899;53.576;9.960;2022-09-20T01:35:28;2.30;;;1.02;;
21474;SDS011;10899;53.576;9.960;2022-09-20T01:38:11;6.03;;;1.42;;
21474;SDS011;10899;53.576;9.960;2022-09-20T01:43:25;8.02;;;1.60;;
21474;SDS011;10899;53.576;9.960;2022-09-20T01:45:55;7.97;;;1.90;;
21474;SDS011;10899;53.576;9.960;2022-09-20T01:48:26;7.70;;;1.70;;
21474;SDS011;10899;53.576;9.960;2022-09-20T01:51:15;5.05;;;1.50;;
21474;SDS011;10899;53.576;9.960;2022-09-20T01:56:42;6.90;;;1.42;;
21474;SDS011;10899;53.576;9.960;2022-09-20T02:16:56;5.47;;;1.60;;
21474;SDS011;10899;53.576;9.960;2022-09-20T02:19:27;4.15;;;1.60;;
21474;SDS011;10899;53.576;9.960;2022-09-20T02:22:39;4.90;;;1.77;;
21474;SDS011;10899;53.576;9.960;2022-09-20T02:24:49;6.00;;;1.60;;
21474;SDS011;10899;53.576;9.960;2022-09-20T02:32:16;5.60;;;1.65;;
21474;SDS011;10899;53.576;9.960;2022-09-20T02:45:17;3.42;;;1.30;;
21474;SDS011;10899;53.576;9.960;2022-09-20T02:47:47;3.45;;;1.70;;
21474;SDS011;10899;53.576;9.960;2022-09-20T02:50:19;2.97;;;1.52;;
21474;SDS011;10899;53.576;9.960;2022-09-20T02:53:04;3.40;;;1.30;;
21474;SDS011;10899;53.576;9.960;2022-09-20T02:55:39;4.00;;;1.40;;
21474;SDS011;10899;53.576;9.960;2022-09-20T03:03:40;5.45;;;1.33;;
21474;SDS011;10899;53.576;9.960;2022-09-20T03:16:39;3.70;;;1.30;;
21474;SDS011;10899;53.576;9.960;2022-09-20T03:24:32;4.43;;;1.48;;
21474;SDS011;10899;53.576;9.960;2022-09-20T03:32:29;2.53;;;1.35;;
21474;SDS011;10899;53.576;9.960;2022-09-20T03:35:15;2.30;;;1.25;;
21474;SDS011;10899;53.576;9.960;2022-09-20T03:53:32;3.40;;;1.50;;
21474;SDS011;10899;53.576;9.960;2022-09-20T04:04:00;3.72;;;1.55;;
21474;SDS011;10899;53.576;9.960;2022-09-20T04:12:01;2.88;;;1.33;;
21474;SDS011;10899;53.576;9.960;2022-09-20T04:19:44;4.30;;;1.60;;
21474;SDS011;10899;53.576;9.960;2022-09-20T04:22:11;3.13;;;1.50;;
21474;SDS011;10899;53.576;9.960;2022-09-20T04:24:52;2.85;;;1.30;;
21474;SDS011;10899;53.576;9.960;2022-09-20T04:27:28;6.95;;;1.75;;
21474;SDS011;10899;53.576;9.960;2022-09-20T04:32:31;6.00;;;1.35;;
21474;SDS011;10899;53.576;9.960;2022-09-20T04:38:06;2.30;;;1.20;;
21474;SDS011;10899;53.576;9.960;2022-09-20T04:40:53;2.25;;;1.30;;
21474;SDS011;10899;53.576;9.960;2022-09-20T04:51:34;2.65;;;1.15;;
21474;SDS011;10899;53.576;9.960;2022-09-20T04:59:15;2.28;;;1.30;;
21474;SDS011;10899;53.576;9.960;2022-09-20T05:09:49;5.80;;;1.50;;
21474;SDS011;10899;53.576;9.960;2022-09-20T05:28:40;6.82;;;1.63;;
21474;SDS011;10899;53.576;9.960;2022-09-20T05:36:12;5.90;;;1.20;;
21474;SDS011;10899;53.576;9.960;2022-09-20T05:41:15;5.68;;;1.50;;
21474;SDS011;10899;53.576;9.960;2022-09-20T05:46:28;5.82;;;1.50;;
21474;SDS011;10899;53.576;9.960;2022-09-20T05:49:03;3.85;;;1.63;;
21474;SDS011;10899;53.576;9.960;2022-09-20T05:52:21;3.92;;;1.50;;
21474;SDS011;10899;53.576;9.960;2022-09-20T05:59:30;4.32;;;1.73;;
21474;SDS011;10899;53.576;9.960;2022-09-20T06:02:01;3.97;;;1.70;;
21474;SDS011;10899;53.576;9.960;2022-09-20T06:07:21;2.88;;;1.40;;
21474;SDS011;10899;53.576;9.960;2022-09-20T06:14:59;4.20;;;1.50;;
21474;SDS011;10899;53.576;9.960;2022-09-20T06:18:08;2.47;;;1.55;;
21474;SDS011;10899;53.576;9.960;2022-09-20T06:20:27;4.20;;;1.27;;
21474;SDS011;10899;53.576;9.960;2022-09-20T06:22:55;4.13;;;1.88;;
21474;SDS011;10899;53.576;9.960;2022-09-20T06:27:55;4.78;;;1.40;;
21474;SDS011;10899;53.576;9.960;2022-09-20T06:30:27;5.65;;;1.67;;
21474;SDS011;10899;53.576;9.960;2022-09-20T06:32:56;3.08;;;1.30;;
21474;SDS011;10899;53.576;9.960;2022-09-20T06:35:25;4.03;;;1.58;;
21474;SDS011;10899;53.576;9.960;2022-09-20T06:37:58;4.00;;;1.60;;
21474;SDS011;10899;53.576;9.960;2022-09-20T06:40:47;4.43;;;1.48;;
21474;SDS011;10899;53.576;9.960;2022-09-20T06:43:36;3.83;;;1.50;;
21474;SDS011;10899;53.576;9.960;2022-09-20T06:46:05;2.63;;;1.45;;
21474;SDS011;10899;53.576;9.960;2022-09-20T06:48:32;1.83;;;1.10;;
21474;SDS011;10899;53.576;9.960;2022-09-20T06:51:05;3.63;;;1.40;;
21474;SDS011;10899;53.576;9.960;2022-09-20T06:53:34;5.80;;;1.65;;
21474;SDS011;10899;53.576;9.960;2022-09-20T06:56:01;2.97;;;1.48;;
21474;SDS011;10899;53.576;9.960;2022-09-20T06:58:28;3.70;;;1.38;;
21474;SDS011;10899;53.576;9.960;2022-09-20T07:00:55;4.22;;;1.70;;
21474;SDS011;10899;53.576;9.960;2022-09-20T07:03:22;3.03;;;1.48;;
21474;SDS011;10899;53.576;9.960;2022-09-20T07:05:48;3.30;;;1.27;;
21474;SDS011;10899;53.576;9.960;2022-09-20T07:08:15;4.20;;;1.48;;
21474;SDS011;10899;53.576;9.960;2022-09-20T07:10:42;3.70;;;1.55;;
21474;SDS011;10899;53.576;9.960;2022-09-20T07:13:09;1.75;;;1.38;;
21474;SDS011;10899;53.576;9.960;2022-09-20T07:15:38;4.63;;;1.55;;
21474;SDS011;10899;53.576;9.960;2022-09-20T07:18:04;2.78;;;1.50;;
21474;SDS011;10899;53.576;9.960;2022-09-20T07:20:32;2.72;;;1.05;;
21474;SDS011;10899;53.576;9.960;2022-09-20T07:22:59;1.70;;;1.20;;
21474;SDS011;10899;53.576;9.960;2022-09-20T07:25:27;1.92;;;1.30;;
21474;SDS011;10899;53.576;9.960;2022-09-20T07:27:53;2.92;;;1.13;;
21474;SDS011;10899;53.576;9.960;2022-09-20T07:30:20;2.03;;;1.27;;
21474;SDS011;10899;53.576;9.960;2022-09-20T07:32:46;1.60;;;1.30;;
21474;SDS011;10899;53.576;9.960;2022-09-20T07:35:14;2.30;;;1.17;;
21474;SDS011;10899;53.576;9.960;2022-09-20T07:37:41;1.80;;;1.23;;
21474;SDS011;10899;53.576;9.960;2022-09-20T07:40:08;1.73;;;1.00;;
21474;SDS011;10899;53.576;9.960;2022-09-20T07:42:35;2.03;;;1.20;;
21474;SDS011;10899;53.576;9.960;2022-09-20T07:45:02;2.83;;;1.25;;
21474;SDS011;10899;53.576;9.960;2022-09-20T07:47:29;3.10;;;1.20;;
21474;SDS011;10899;53.576;9.960;2022-09-20T07:49:59;2.63;;;1.10;;
21474;SDS011;10899;53.576;9.960;2022-09-20T07:52:26;2.13;;;1.10;;
21474;SDS011;10899;53.576;9.960;2022-09-20T07:54:53;2.88;;;1.10;;
21474;SDS011;10899;53.576;9.960;2022-09-20T07:57:20;2.28;;;1.20;;
21474;SDS011;10899;53.576;9.960;2022-09-20T07:59:47;1.67;;;1.10;;
21474;SDS011;10899;53.576;9.960;2022-09-20T08:02:14;2.35;;;1.30;;
21474;SDS011;10899;53.576;9.960;2022-09-20T08:04:40;3.05;;;1.25;;
21474;SDS011;10899;53.576;9.960;2022-09-20T08:07:07;1.70;;;1.20;;
21474;SDS011;10899;53.576;9.960;2022-09-20T08:09:34;2.25;;;1.25;;
21474;SDS011;10899;53.576;9.960;2022-09-20T08:12:00;1.75;;;1.10;;
21474;SDS011;10899;53.576;9.960;2022-09-20T08:14:27;1.95;;;1.02;;
21474;SDS011;10899;53.576;9.960;2022-09-20T08:16:53;4.22;;;1.40;;
21474;SDS011;10899;53.576;9.960;2022-09-20T08:19:24;1.83;;;1.17;;
21474;SDS011;10899;53.576;9.960;2022-09-20T08:21:51;2.55;;;1.15;;
21474;SDS011;10899;53.576;9.960;2022-09-20T08:24:18;2.47;;;0.98;;
21474;SDS011;10899;53.576;9.960;2022-09-20T08:26:45;2.45;;;1.23;;
21474;SDS011;10899;53.576;9.960;2022-09-20T08:29:12;2.70;;;1.40;;
21474;SDS011;10899;53.576;9.960;2022-09-20T08:31:39;2.45;;;1.10;;
21474;SDS011;10899;53.576;9.960;2022-09-20T08:34:07;2.63;;;1.60;;
21474;SDS011;10899;53.576;9.960;2022-09-20T08:36:34;2.45;;;1.23;;
21474;SDS011;10899;53.576;9.960;2022-09-20T08:39:01;2.65;;;1.30;;
21474;SDS011;10899;53.576;9.960;2022-09-20T08:46:41;5.20;;;1.35;;
21474;SDS011;10899;53.576;9.960;2022-09-20T08:49:08;3.55;;;1.25;;
21474;SDS011;10899;53.576;9.960;2022-09-20T08:51:40;2.72;;;1.38;;
21474;SDS011;10899;53.576;9.960;2022-09-20T08:54:09;1.85;;;1.25;;
21474;SDS011;10899;53.576;9.960;2022-09-20T08:56:40;2.42;;;1.23;;
21474;SDS011;10899;53.576;9.960;2022-09-20T08:59:13;1.65;;;1.23;;
21474;SDS011;10899;53.576;9.960;2022-09-20T09:01:40;2.65;;;1.40;;
21474;SDS011;10899;53.576;9.960;2022-09-20T09:04:12;1.10;;;0.90;;
21474;SDS011;10899;53.576;9.960;2022-09-20T09:06:39;2.10;;;1.17;;
21474;SDS011;10899;53.576;9.960;2022-09-20T09:09:05;1.95;;;1.10;;
21474;SDS011;10899;53.576;9.960;2022-09-20T09:11:32;1.92;;;1.10;;
21474;SDS011;10899;53.576;9.960;2022-09-20T09:14:06;1.33;;;1.17;;
21474;SDS011;10899;53.576;9.960;2022-09-20T09:16:55;1.33;;;0.90;;
21474;SDS011;10899;53.576;9.960;2022-09-20T09:19:26;1.50;;;1.13;;
21474;SDS011;10899;53.576;9.960;2022-09-20T09:21:57;1.25;;;1.00;;
21474;SDS011;10899;53.576;9.960;2022-09-20T09:24:24;2.70;;;1.42;;
21474;SDS011;10899;53.576;9.960;2022-09-20T09:27:03;1.95;;;1.10;;
21474;SDS011;10899;53.576;9.960;2022-09-20T09:29:30;2.05;;;1.30;;
21474;SDS011;10899;53.576;9.960;2022-09-20T09:31:58;1.73;;;1.13;;
21474;SDS011;10899;53.576;9.960;2022-09-20T09:34:40;2.22;;;1.35;;
21474;SDS011;10899;53.576;9.960;2022-09-20T09:37:08;2.80;;;1.20;;
21474;SDS011;10899;53.576;9.960;2022-09-20T09:39:46;2.88;;;1.20;;
21474;SDS011;10899;53.576;9.960;2022-09-20T09:42:20;1.85;;;1.13;;
21474;SDS011;10899;53.576;9.960;2022-09-20T09:44:48;2.03;;;1.10;;
21474;SDS011;10899;53.576;9.960;2022-09-20T09:47:27;1.92;;;1.10;;
21474;SDS011;10899;53.576;9.960;2022-09-20T09:49:57;3.47;;;1.40;;
21474;SDS011;10899;53.576;9.960;2022-09-20T09:52:24;3.22;;;1.08;;
21474;SDS011;10899;53.576;9.960;2022-09-20T09:54:57;2.83;;;1.33;;
21474;SDS011;10899;53.576;9.960;2022-09-20T10:00:14;3.25;;;1.17;;
21474;SDS011;10899;53.576;9.960;2022-09-20T10:05:14;1.38;;;1.20;;
21474;SDS011;10899;53.576;9.960;2022-09-20T10:13:12;2.58;;;1.25;;
21474;SDS011;10899;53.576;9.960;2022-09-20T10:39:12;1.80;;;1.10;;
21474;SDS011;10899;53.576;9.960;2022-09-20T10:44:49;2.00;;;1.20;;
21474;SDS011;10899;53.576;9.960;2022-09-20T10:47:20;2.80;;;1.23;;
21474;SDS011;10899;53.576;9.960;2022-09-20T10:49:57;1.85;;;1.23;;
21474;SDS011;10899;53.576;9.960;2022-09-20T11:05:55;2.00;;;1.33;;
21474;SDS011;10899;53.576;9.960;2022-09-20T11:08:28;2.28;;;1.30;;
21474;SDS011;10899;53.576;9.960;2022-09-20T11:10:58;2.45;;;1.30;;
21474;SDS011;10899;53.576;9.960;2022-09-20T11:18:35;3.40;;;1.38;;
21474;SDS011;10899;53.576;9.960;2022-09-20T11:21:06;2.40;;;1.02;;
21474;SDS011;10899;53.576;9.960;2022-09-20T11:26:10;3.25;;;1.35;;
21474;SDS011;10899;53.576;9.960;2022-09-20T11:28:42;3.00;;;1.20;;
21474;SDS011;10899;53.576;9.960;2022-09-20T11:36:07;3.17;;;1.33;;
21474;SDS011;10899;53.576;9.960;2022-09-20T11:38:36;2.00;;;1.25;;
21474;SDS011;10899;53.576;9.960;2022-09-20T11:41:17;3.40;;;1.23;;
21474;SDS011;10899;53.576;9.960;2022-09-20T11:43:44;4.45;;;1.40;;
21474;SDS011;10899;53.576;9.960;2022-09-20T11:46:13;2.42;;;1.20;;
21474;SDS011;10899;53.576;9.960;2022-09-20T11:48:51;2.72;;;1.15;;
21474;SDS011;10899;53.576;9.960;2022-09-20T11:57:13;2.35;;;1.10;;
21474;SDS011;10899;53.576;9.960;2022-09-20T11:59:48;1.60;;;1.15;;
21474;SDS011;10899;53.576;9.960;2022-09-20T12:03:00;2.78;;;1.27;;
21474;SDS011;10899;53.576;9.960;2022-09-20T12:05:05;3.97;;;1.23;;
21474;SDS011;10899;53.576;9.960;2022-09-20T12:07:40;2.72;;;1.30;;
21474;SDS011;10899;53.576;9.960;2022-09-20T12:12:45;1.60;;;1.13;;
21474;SDS011;10899;53.576;9.960;2022-09-20T12:15:26;2.30;;;1.50;;
21474;SDS011;10899;53.576;9.960;2022-09-20T12:26:02;2.03;;;1.08;;
21474;SDS011;10899;53.576;9.960;2022-09-20T12:28:38;3.35;;;1.25;;
21474;SDS011;10899;53.576;9.960;2022-09-20T12:36:27;1.50;;;1.00;;
21474;SDS011;10899;53.576;9.960;2022-09-20T12:41:26;1.95;;;1.40;;
21474;SDS011;10899;53.576;9.960;2022-09-20T12:43:55;2.72;;;1.35;;
21474;SDS011;10899;53.576;9.960;2022-09-20T12:46:33;1.90;;;1.17;;
21474;SDS011;10899;53.576;9.960;2022-09-20T12:49:10;2.72;;;1.20;;
21474;SDS011;10899;53.576;9.960;2022-09-20T12:51:57;1.48;;;1.00;;
21474;SDS011;10899;53.576;9.960;2022-09-20T12:54:50;3.78;;;1.17;;
21474;SDS011;10899;53.576;9.960;2022-09-20T12:59:55;2.28;;;1.17;;
21474;SDS011;10899;53.576;9.960;2022-09-20T13:08:09;2.38;;;1.10;;
21474;SDS011;10899;53.576;9.960;2022-09-20T13:10:42;1.65;;;1.30;;
21474;SDS011;10899;53.576;9.960;2022-09-20T13:13:12;3.78;;;1.23;;
21474;SDS011;10899;53.576;9.960;2022-09-20T13:15:45;1.95;;;1.50;;
21474;SDS011;10899;53.576;9.960;2022-09-20T13:18:12;1.23;;;1.00;;
21474;SDS011;10899;53.576;9.960;2022-09-20T13:20:40;2.65;;;1.00;;
21474;SDS011;10899;53.576;9.960;2022-09-20T13:23:09;1.92;;;1.10;;
21474;SDS011;10899;53.576;9.960;2022-09-20T13:25:41;2.92;;;1.20;;
21474;SDS011;10899;53.576;9.960;2022-09-20T13:28:12;1.15;;;0.80;;
21474;SDS011;10899;53.576;9.960;2022-09-20T13:30:40;1.55;;;1.20;;
21474;SDS011;10899;53.576;9.960;2022-09-20T13:33:22;1.55;;;1.05;;
21474;SDS011;10899;53.576;9.960;2022-09-20T13:35:51;3.00;;;1.20;;
21474;SDS011;10899;53.576;9.960;2022-09-20T13:38:18;2.03;;;0.88;;
21474;SDS011;10899;53.576;9.960;2022-09-20T13:40:48;1.52;;;1.00;;
21474;SDS011;10899;53.576;9.960;2022-09-20T13:45:50;3.28;;;1.15;;
21474;SDS011;10899;53.576;9.960;2022-09-20T13:48:17;1.52;;;0.90;;
21474;SDS011;10899;53.576;9.960;2022-09-20T13:50:44;1.60;;;1.10;;
21474;SDS011;10899;53.576;9.960;2022-09-20T13:53:15;4.97;;;1.20;;
21474;SDS011;10899;53.576;9.960;2022-09-20T13:55:42;2.55;;;1.17;;
21474;SDS011;10899;53.576;9.960;2022-09-20T14:00:46;2.20;;;1.20;;
21474;SDS011;10899;53.576;9.960;2022-09-20T14:03:15;3.92;;;1.20;;
21474;SDS011;10899;53.576;9.960;2022-09-20T14:08:46;1.50;;;1.00;;
21474;SDS011;10899;53.576;9.960;2022-09-20T14:11:20;2.70;;;1.20;;
21474;SDS011;10899;53.576;9.960;2022-09-20T14:13:48;3.05;;;1.15;;
21474;SDS011;10899;53.576;9.960;2022-09-20T14:16:16;3.13;;;1.10;;
21474;SDS011;10899;53.576;9.960;2022-09-20T14:18:44;3.70;;;1.35;;
21474;SDS011;10899;53.576;9.960;2022-09-20T14:21:12;7.63;;;1.40;;
21474;SDS011;10899;53.576;9.960;2022-09-20T14:23:56;3.05;;;1.10;;
21474;SDS011;10899;53.576;9.960;2022-09-20T14:26:25;1.63;;;1.10;;
21474;SDS011;10899;53.576;9.960;2022-09-20T14:28:52;3.97;;;1.45;;
21474;SDS011;10899;53.576;9.960;2022-09-20T14:31:20;3.30;;;1.40;;
21474;SDS011;10899;53.576;9.960;2022-09-20T14:33:49;3.17;;;1.10;;
21474;SDS011;10899;53.576;9.960;2022-09-20T14:36:18;2.80;;;1.08;;
21474;SDS011;10899;53.576;9.960;2022-09-20T14:38:46;1.75;;;1.20;;
21474;SDS011;10899;53.576;9.960;2022-09-20T14:41:12;4.18;;;1.25;;
21474;SDS011;10899;53.576;9.960;2022-09-20T14:43:39;5.43;;;1.20;;
21474;SDS011;10899;53.576;9.960;2022-09-20T14:46:10;4.50;;;1.15;;
21474;SDS011;10899;53.576;9.960;2022-09-20T14:48:40;2.95;;;0.98;;
21474;SDS011;10899;53.576;9.960;2022-09-20T14:53:34;3.28;;;1.00;;
21474;SDS011;10899;53.576;9.960;2022-09-20T14:56:06;3.92;;;1.13;;
21474;SDS011;10899;53.576;9.960;2022-09-20T14:58:59;2.40;;;1.10;;
21474;SDS011;10899;53.576;9.960;2022-09-20T15:01:22;3.30;;;1.42;;
21474;SDS011;10899;53.576;9.960;2022-09-20T15:03:49;2.35;;;1.00;;
21474;SDS011;10899;53.576;9.960;2022-09-20T15:06:16;4.25;;;1.40;;
21474;SDS011;10899;53.576;9.960;2022-09-20T15:08:43;2.40;;;1.00;;
21474;SDS011;10899;53.576;9.960;2022-09-20T15:11:13;3.83;;;1.10;;
21474;SDS011;10899;53.576;9.960;2022-09-20T15:13:40;3.42;;;1.30;;
21474;SDS011;10899;53.576;9.960;2022-09-20T15:16:06;2.25;;;1.02;;
21474;SDS011;10899;53.576;9.960;2022-09-20T15:18:38;1.00;;;0.90;;
21474;SDS011;10899;53.576;9.960;2022-09-20T15:21:05;2.92;;;1.13;;
21474;SDS011;10899;53.576;9.960;2022-09-20T15:23:32;1.45;;;0.90;;
21474;SDS011;10899;53.576;9.960;2022-09-20T15:25:59;2.35;;;1.23;;
21474;SDS011;10899;53.576;9.960;2022-09-20T15:28:26;2.83;;;1.02;;
21474;SDS011;10899;53.576;9.960;2022-09-20T15:30:52;1.40;;;1.10;;
21474;SDS011;10899;53.576;9.960;2022-09-20T15:33:20;4.90;;;1.42;;
21474;SDS011;10899;53.576;9.960;2022-09-20T15:35:46;3.17;;;1.00;;
21474;SDS011;10899;53.576;9.960;2022-09-20T15:38:15;4.63;;;1.20;;
21474;SDS011;10899;53.576;9.960;2022-09-20T15:40:43;1.45;;;1.23;;
21474;SDS011;10899;53.576;9.960;2022-09-20T15:43:11;3.80;;;1.40;;
21474;SDS011;10899;53.576;9.960;2022-09-20T15:45:53;2.50;;;1.15;;
21474;SDS011;10899;53.576;9.960;2022-09-20T15:48:21;5.68;;;1.40;;
21474;SDS011;10899;53.576;9.960;2022-09-20T15:53:29;4.72;;;1.48;;
21474;SDS011;10899;53.576;9.960;2022-09-20T15:55:57;2.70;;;1.02;;
21474;SDS011;10899;53.576;9.960;2022-09-20T15:58:30;6.22;;;1.50;;
21474;SDS011;10899;53.576;9.960;2022-09-20T16:01:01;3.30;;;1.30;;
21474;SDS011;10899;53.576;9.960;2022-09-20T16:03:29;4.38;;;1.73;;
21474;SDS011;10899;53.576;9.960;2022-09-20T16:06:00;3.38;;;1.33;;
21474;SDS011;10899;53.576;9.960;2022-09-20T16:08:31;2.33;;;1.25;;
21474;SDS011;10899;53.576;9.960;2022-09-20T16:10:58;2.80;;;1.23;;
21474;SDS011;10899;53.576;9.960;2022-09-20T16:13:25;3.13;;;1.27;;
21474;SDS011;10899;53.576;9.960;2022-09-20T16:15:55;4.25;;;1.75;;
21474;SDS011;10899;53.576;9.960;2022-09-20T16:18:21;3.80;;;1.73;;
21474;SDS011;10899;53.576;9.960;2022-09-20T16:21:07;2.60;;;1.10;;
21474;SDS011;10899;53.576;9.960;2022-09-20T16:23:36;4.57;;;1.38;;
21474;SDS011;10899;53.576;9.960;2022-09-20T16:26:06;4.78;;;1.40;;
21474;SDS011;10899;53.576;9.960;2022-09-20T16:28:37;3.95;;;1.30;;
21474;SDS011;10899;53.576;9.960;2022-09-20T16:31:04;4.22;;;1.75;;
21474;SDS011;10899;53.576;9.960;2022-09-20T16:33:31;3.75;;;1.40;;
21474;SDS011;10899;53.576;9.960;2022-09-20T16:35:58;5.65;;;1.25;;
21474;SDS011;10899;53.576;9.960;2022-09-20T16:38:25;6.45;;;1.67;;
21474;SDS011;10899;53.576;9.960;2022-09-20T16:40:52;3.58;;;1.27;;
21474;SDS011;10899;53.576;9.960;2022-09-20T16:43:20;4.53;;;1.42;;
21474;SDS011;10899;53.576;9.960;2022-09-20T16:45:59;2.80;;;1.30;;
21474;SDS011;10899;53.576;9.960;2022-09-20T16:48:26;5.35;;;1.50;;
21474;SDS011;10899;53.576;9.960;2022-09-20T16:50:54;3.75;;;1.92;;
21474;SDS011;10899;53.576;9.960;2022-09-20T16:53:21;4.32;;;1.58;;
21474;SDS011;10899;53.576;9.960;2022-09-20T16:55:48;3.85;;;1.38;;
21474;SDS011;10899;53.576;9.960;2022-09-20T16:58:15;4.82;;;1.55;;
21474;SDS011;10899;53.576;9.960;2022-09-20T17:00:41;4.32;;;1.60;;
21474;SDS011;10899;53.576;9.960;2022-09-20T17:03:08;2.20;;;1.33;;
21474;SDS011;10899;53.576;9.960;2022-09-20T17:05:36;8.05;;;1.83;;
21474;SDS011;10899;53.576;9.960;2022-09-20T17:08:06;5.82;;;1.70;;
21474;SDS011;10899;53.576;9.960;2022-09-20T17:10:34;7.43;;;1.58;;
21474;SDS011;10899;53.576;9.960;2022-09-20T17:13:00;4.20;;;1.40;;
21474;SDS011;10899;53.576;9.960;2022-09-20T17:15:27;7.28;;;1.88;;
21474;SDS011;10899;53.576;9.960;2022-09-20T17:17:54;5.80;;;1.70;;
21474;SDS011;10899;53.576;9.960;2022-09-20T17:20:22;3.03;;;1.73;;
21474;SDS011;10899;53.576;9.960;2022-09-20T17:22:51;4.43;;;1.48;;
21474;SDS011;10899;53.576;9.960;2022-09-20T17:25:18;6.38;;;1.90;;
21474;SDS011;10899;53.576;9.960;2022-09-20T17:27:45;4.10;;;1.60;;
21474;SDS011;10899;53.576;9.960;2022-09-20T17:30:13;4.35;;;2.00;;
21474;SDS011;10899;53.576;9.960;2022-09-20T17:32:41;4.18;;;1.50;;
21474;SDS011;10899;53.576;9.960;2022-09-20T17:35:12;4.47;;;1.73;;
21474;SDS011;10899;53.576;9.960;2022-09-20T17:37:40;4.13;;;1.40;;
21474;SDS011;10899;53.576;9.960;2022-09-20T17:40:07;6.60;;;1.98;;
21474;SDS011;10899;53.576;9.960;2022-09-20T17:42:34;3.72;;;2.17;;
21474;SDS011;10899;53.576;9.960;2022-09-20T17:45:02;5.55;;;2.50;;
21474;SDS011;10899;53.576;9.960;2022-09-20T17:47:28;5.78;;;2.90;;
21474;SDS011;10899;53.576;9.960;2022-09-20T17:49:55;7.25;;;3.10;;
21474;SDS011;10899;53.576;9.960;2022-09-20T17:52:21;6.65;;;3.28;;
21474;SDS011;10899;53.576;9.960;2022-09-20T17:54:48;5.93;;;3.88;;
21474;SDS011;10899;53.576;9.960;2022-09-20T17:57:15;6.30;;;3.95;;
21474;SDS011;10899;53.576;9.960;2022-09-20T17:59:41;6.70;;;3.70;;
21474;SDS011;10899;53.576;9.960;2022-09-20T18:02:08;9.02;;;4.35;;
21474;SDS011;10899;53.576;9.960;2022-09-20T18:04:35;5.28;;;3.78;;
21474;SDS011;10899;53.576;9.960;2022-09-20T18:07:01;5.90;;;3.70;;
21474;SDS011;10899;53.576;9.960;2022-09-20T18:09:28;5.78;;;3.67;;
21474;SDS011;10899;53.576;9.960;2022-09-20T18:11:55;9.65;;;4.13;;
21474;SDS011;10899;53.576;9.960;2022-09-20T18:14:25;7.07;;;3.97;;
21474;SDS011;10899;53.576;9.960;2022-09-20T18:16:53;6.25;;;4.00;;
21474;SDS011;10899;53.576;9.960;2022-09-20T18:19:21;7.15;;;3.95;;
21474;SDS011;10899;53.576;9.960;2022-09-20T18:21:48;6.63;;;4.20;;
21474;SDS011;10899;53.576;9.960;2022-09-20T18:24:14;5.45;;;3.95;;
21474;SDS011;10899;53.576;9.960;2022-09-20T18:26:41;6.25;;;3.67;;
21474;SDS011;10899;53.576;9.960;2022-09-20T18:29:10;6.32;;;4.07;;
21474;SDS011;10899;53.576;9.960;2022-09-20T18:31:41;6.05;;;3.58;;
21474;SDS011;10899;53.576;9.960;2022-09-20T18:34:13;6.10;;;3.92;;
21474;SDS011;10899;53.576;9.960;2022-09-20T18:36:42;6.70;;;4.00;;
21474;SDS011;10899;53.576;9.960;2022-09-20T18:39:09;6.88;;;3.97;;
21474;SDS011;10899;53.576;9.960;2022-09-20T18:41:37;9.15;;;5.15;;
21474;SDS011;10899;53.576;9.960;2022-09-20T18:44:08;6.30;;;4.70;;
21474;SDS011;10899;53.576;9.960;2022-09-20T18:46:38;7.22;;;4.57;;
21474;SDS011;10899;53.576;9.960;2022-09-20T18:49:07;8.48;;;5.47;;
21474;SDS011;10899;53.576;9.960;2022-09-20T18:51:34;9.80;;;5.43;;
21474;SDS011;10899;53.576;9.960;2022-09-20T18:54:00;6.85;;;5.22;;
21474;SDS011;10899;53.576;9.960;2022-09-20T18:56:32;8.02;;;5.60;;
21474;SDS011;10899;53.576;9.960;2022-09-20T18:59:03;9.48;;;6.22;;
21474;SDS011;10899;53.576;9.960;2022-09-20T19:04:04;7.57;;;5.70;;
21474;SDS011;10899;53.576;9.960;2022-09-20T19:09:51;7.82;;;5.63;;
21474;SDS011;10899;53.576;9.960;2022-09-20T19:12:19;9.07;;;6.30;;
21474;SDS011;10899;53.576;9.960;2022-09-20T19:20:23;8.68;;;6.32;;
21474;SDS011;10899;53.576;9.960;2022-09-20T19:25:39;9.25;;;6.05;;
21474;SDS011;10899;53.576;9.960;2022-09-20T19:28:11;7.68;;;6.05;;
21474;SDS011;10899;53.576;9.960;2022-09-20T19:30:39;9.15;;;6.18;;
21474;SDS011;10899;53.576;9.960;2022-09-20T19:33:15;8.60;;;6.57;;
21474;SDS011;10899;53.576;9.960;2022-09-20T19:35:52;10.25;;;6.00;;
21474;SDS011;10899;53.576;9.960;2022-09-20T19:46:33;9.60;;;5.20;;
21474;SDS011;10899;53.576;9.960;2022-09-20T19:49:44;8.82;;;4.57;;
21474;SDS011;10899;53.576;9.960;2022-09-20T19:51:51;7.10;;;4.20;;
21474;SDS011;10899;53.576;9.960;2022-09-20T19:54:22;7.65;;;3.60;;
21474;SDS011;10899;53.576;9.960;2022-09-20T19:56:53;7.45;;;3.70;;
21474;SDS011;10899;53.576;9.960;2022-09-20T19:59:21;4.00;;;3.05;;
21474;SDS011;10899;53.576;9.960;2022-09-20T20:01:48;5.20;;;3.60;;
21474;SDS011;10899;53.576;9.960;2022-09-20T20:04:15;4.10;;;2.83;;
21474;SDS011;10899;53.576;9.960;2022-09-20T20:09:20;6.88;;;2.88;;
21474;SDS011;10899;53.576;9.960;2022-09-20T20:19:58;4.72;;;2.30;;
21474;SDS011;10899;53.576;9.960;2022-09-20T20:24:57;4.20;;;2.30;;
21474;SDS011;10899;53.576;9.960;2022-09-20T20:27:24;4.95;;;2.40;;
21474;SDS011;10899;53.576;9.960;2022-09-20T20:29:55;6.15;;;2.30;;
21474;SDS011;10899;53.576;9.960;2022-09-20T20:32:22;4.78;;;2.00;;